Time;durP1;ratioP1;P1;durP2;ratioP2;P2;SDS_P1;SDS_P2;PMS_P1;PMS_P2;Temp;Humidity;BMP_temperature;BMP_pressure;BME280_temperature;BME280_humidity;BME280_pressure;Samples;Min_cycle;Max_cycle;Signal;HPM_P1;HPM_P2
2023/05/29 00:01:27;;;;;;;9.48;5.82;;;12.50;72.40;;;;;;5052411;28;20491;-73
2023/05/29 00:03:54;;;;;;;11.55;6.30;;;12.40;73.00;;;;;;5052260;28;20659;-72
2023/05/29 00:06:21;;;;;;;9.43;5.15;;;12.40;73.20;;;;;;5051697;28;20661;-72
2023/05/29 00:08:48;;;;;;;8.35;5.57;;;12.50;73.40;;;;;;5052438;28;20218;-72
2023/05/29 00:11:16;;;;;;;9.50;6.10;;;12.40;73.70;;;;;;5052222;28;20280;-72
2023/05/29 00:13:43;;;;;;;9.38;5.88;;;12.50;73.40;;;;;;5051812;28;20915;-72
2023/05/29 00:16:10;;;;;;;9.63;5.82;;;12.40;73.30;;;;;;5050556;28;20225;-72
2023/05/29 00:18:44;;;;;;;9.68;6.03;;;12.40;73.60;;;;;;5051570;28;20186;-72
2023/05/29 00:21:11;;;;;;;9.13;6.03;;;12.20;74.20;;;;;;5051729;28;20190;-73
2023/05/29 00:23:38;;;;;;;10.93;5.78;;;12.20;74.60;;;;;;5052988;28;20198;-72
2023/05/29 00:26:05;;;;;;;9.73;5.80;;;12.00;75.30;;;;;;5052632;28;20186;-72
2023/05/29 00:28:35;;;;;;;9.68;5.75;;;12.00;76.80;;;;;;5052700;28;20542;-72
2023/05/29 00:31:07;;;;;;;7.35;4.88;;;11.90;76.40;;;;;;5052444;28;20637;-72
2023/05/29 00:33:38;;;;;;;11.10;6.28;;;11.90;76.80;;;;;;5052706;28;20183;-73
2023/05/29 00:36:07;;;;;;;9.15;6.50;;;12.00;77.70;;;;;;5052373;28;20225;-73
2023/05/29 00:38:34;;;;;;;9.73;6.47;;;12.00;78.20;;;;;;5051554;28;20201;-73
2023/05/29 00:41:02;;;;;;;8.38;4.82;;;12.00;78.40;;;;;;5052733;28;20275;-72
2023/05/29 00:43:29;;;;;;;8.88;4.80;;;12.00;78.60;;;;;;5052005;28;20233;-73
2023/05/29 00:45:58;;;;;;;9.15;6.10;;;12.00;78.60;;;;;;5052689;28;20225;-72
2023/05/29 00:48:25;;;;;;;8.25;5.45;;;12.00;78.50;;;;;;5052654;28;20609;-73
2023/05/29 00:50:53;;;;;;;13.15;6.47;;;12.00;78.70;;;;;;5051401;28;20202;-73
2023/05/29 00:53:21;;;;;;;7.00;5.30;;;12.00;79.00;;;;;;5052550;28;20224;-73
2023/05/29 00:55:48;;;;;;;7.78;5.85;;;12.00;79.30;;;;;;5052453;28;20285;-73
2023/05/29 00:58:16;;;;;;;8.70;5.07;;;12.00;79.40;;;;;;5052459;28;20290;-73
2023/05/29 01:00:43;;;;;;;8.13;5.60;;;11.90;79.20;;;;;;5052469;28;20257;-73
2023/05/29 01:03:16;;;;;;;10.20;5.30;;;11.90;78.40;;;;;;5052094;28;20194;-73
2023/05/29 01:05:43;;;;;;;8.77;5.15;;;11.80;78.00;;;;;;5052155;28;20194;-73
2023/05/29 01:08:15;;;;;;;8.35;5.30;;;11.80;77.80;;;;;;5052285;28;20681;-73
2023/05/29 01:10:42;;;;;;;9.25;5.43;;;11.70;77.90;;;;;;5052517;28;20226;-73
2023/05/29 01:13:16;;;;;;;14.43;5.55;;;11.70;77.70;;;;;;5052209;28;20197;-73
2023/05/29 01:15:49;;;;;;;10.05;5.53;;;11.60;78.40;;;;;;5052454;28;20187;-73
2023/05/29 01:18:44;;;;;;;8.27;6.35;;;11.50;79.00;;;;;;5052230;28;20214;-72
2023/05/29 01:21:19;;;;;;;8.20;4.68;;;11.50;79.60;;;;;;5052204;28;20763;-72
2023/05/29 01:24:04;;;;;;;8.93;5.60;;;11.50;79.30;;;;;;5052221;28;20226;-72
2023/05/29 01:26:54;;;;;;;15.25;9.30;;;11.40;79.70;;;;;;5052307;28;20226;-73
2023/05/29 01:29:25;;;;;;;11.80;7.55;;;11.30;80.20;;;;;;5052187;28;20267;-73
2023/05/29 01:31:53;;;;;;;9.98;6.93;;;11.30;80.50;;;;;;5052262;28;20643;-73
2023/05/29 01:34:20;;;;;;;9.38;6.68;;;11.20;81.10;;;;;;5052049;28;20699;-73
2023/05/29 01:36:47;;;;;;;10.18;7.07;;;11.20;81.60;;;;;;5051517;28;20610;-72
2023/05/29 01:39:15;;;;;;;8.23;6.00;;;11.20;81.60;;;;;;5051948;28;20233;-72
2023/05/29 01:41:44;;;;;;;8.07;5.43;;;11.20;81.60;;;;;;5051899;28;20264;-72
2023/05/29 01:44:14;;;;;;;10.27;6.30;;;11.20;81.90;;;;;;5052168;28;20200;-72
2023/05/29 01:46:42;;;;;;;8.90;6.05;;;11.20;82.20;;;;;;5052248;28;20275;-73
2023/05/29 01:49:11;;;;;;;8.52;5.75;;;11.20;82.90;;;;;;5051936;28;20221;-72
2023/05/29 01:51:38;;;;;;;8.57;6.03;;;11.20;83.00;;;;;;5051936;28;20641;-72
2023/05/29 01:54:06;;;;;;;11.50;6.25;;;11.10;83.00;;;;;;5051935;28;20218;-72
2023/05/29 01:56:33;;;;;;;8.85;5.68;;;11.10;82.90;;;;;;5055456;28;20195;-73
2023/05/29 01:59:03;;;;;;;9.75;5.32;;;11.00;83.30;;;;;;5055277;28;20194;-73
2023/05/29 02:01:32;;;;;;;9.07;5.78;;;11.00;84.90;;;;;;5055635;28;20194;-73
2023/05/29 02:03:59;;;;;;;9.98;6.53;;;11.00;84.50;;;;;;5055306;28;20285;-73
2023/05/29 02:06:26;;;;;;;8.68;5.53;;;11.00;85.20;;;;;;5055278;28;20191;-73
2023/05/29 02:08:53;;;;;;;7.57;4.80;;;10.90;85.00;;;;;;5055570;28;20226;-73
2023/05/29 02:11:20;;;;;;;10.55;5.57;;;10.90;85.80;;;;;;5055510;28;20279;-73
2023/05/29 02:13:47;;;;;;;6.97;4.85;;;10.90;86.30;;;;;;5054943;28;20232;-73
2023/05/29 02:16:14;;;;;;;9.60;5.60;;;10.80;86.70;;;;;;5055085;28;20198;-73
2023/05/29 02:18:47;;;;;;;14.75;6.70;;;10.80;87.80;;;;;;5055607;28;20287;-73
2023/05/29 02:21:14;;;;;;;11.82;6.47;;;10.80;87.30;;;;;;5055280;28;20313;-72
2023/05/29 02:23:41;;;;;;;9.40;5.70;;;10.80;86.90;;;;;;5054820;28;20198;-73
2023/05/29 02:26:08;;;;;;;9.38;5.22;;;10.70;87.30;;;;;;5054820;28;20236;-73
2023/05/29 02:28:35;;;;;;;9.68;4.65;;;10.70;88.00;;;;;;5055055;28;20191;-72
2023/05/29 02:31:03;;;;;;;10.68;5.32;;;10.70;87.90;;;;;;5054578;28;20226;-73
2023/05/29 02:33:30;;;;;;;9.02;5.30;;;10.70;87.00;;;;;;5055055;28;20230;-72
2023/05/29 02:35:59;;;;;;;7.20;4.80;;;10.60;86.60;;;;;;5054881;28;20555;-72
2023/05/29 02:38:26;;;;;;;8.02;5.53;;;10.60;87.20;;;;;;5054452;28;20191;-73
2023/05/29 02:40:53;;;;;;;10.48;6.25;;;10.60;87.00;;;;;;5054752;28;20222;-72
2023/05/29 02:43:23;;;;;;;11.18;6.50;;;10.60;86.70;;;;;;5054702;28;20197;-73
2023/05/29 02:45:50;;;;;;;6.95;5.18;;;10.60;86.40;;;;;;5054384;28;20218;-72
2023/05/29 02:48:17;;;;;;;11.18;5.93;;;10.50;86.80;;;;;;5054878;28;20209;-73
2023/05/29 02:50:44;;;;;;;9.35;5.43;;;10.50;86.80;;;;;;5054757;28;20583;-73
2023/05/29 02:53:12;;;;;;;9.05;4.88;;;10.40;87.10;;;;;;5054774;28;20713;-72
2023/05/29 02:55:40;;;;;;;11.02;5.50;;;10.40;87.50;;;;;;5054435;28;20269;-73
2023/05/29 02:58:07;;;;;;;5.50;4.25;;;10.40;86.90;;;;;;5054419;28;20233;-73
2023/05/29 03:00:34;;;;;;;6.68;4.30;;;10.30;86.50;;;;;;5054026;28;20762;-72
2023/05/29 03:03:03;;;;;;;6.88;5.25;;;10.30;86.20;;;;;;5054073;28;20190;-72
2023/05/29 03:05:30;;;;;;;8.88;5.80;;;10.30;86.30;;;;;;5053863;28;20216;-72
2023/05/29 03:07:57;;;;;;;12.98;6.53;;;10.30;86.30;;;;;;5054340;28;20197;-72
2023/05/29 03:10:25;;;;;;;10.20;6.70;;;10.20;87.10;;;;;;5054044;28;20195;-73
2023/05/29 03:12:52;;;;;;;10.30;5.35;;;10.10;88.50;;;;;;5054052;28;20195;-72
2023/05/29 03:15:21;;;;;;;10.95;6.00;;;10.10;88.60;;;;;;5054240;28;20201;-72
2023/05/29 03:17:48;;;;;;;13.48;6.50;;;10.10;89.00;;;;;;5054005;28;20233;-72
2023/05/29 03:20:15;;;;;;;9.45;5.43;;;10.10;89.60;;;;;;5053731;28;20250;-73
2023/05/29 03:22:42;;;;;;;7.72;5.63;;;10.10;90.20;;;;;;5054135;28;20194;-73
2023/05/29 03:25:10;;;;;;;7.47;5.40;;;10.20;90.40;;;;;;5054220;28;20194;-72
2023/05/29 03:27:38;;;;;;;8.25;5.18;;;10.20;90.40;;;;;;5053927;28;20653;-72
2023/05/29 03:30:06;;;;;;;7.80;4.80;;;10.20;90.60;;;;;;5053976;28;20244;-72
2023/05/29 03:32:33;;;;;;;9.13;4.55;;;10.20;90.30;;;;;;5053679;28;20555;-73
2023/05/29 03:35:01;;;;;;;10.75;6.07;;;10.20;90.20;;;;;;5053563;28;20278;-73
2023/05/29 03:37:27;;;;;;;7.53;5.28;;;10.20;89.70;;;;;;5053705;28;20356;-72
2023/05/29 03:39:54;;;;;;;12.00;5.63;;;10.20;90.00;;;;;;5053521;28;22114;-72
2023/05/29 03:42:22;;;;;;;7.63;5.20;;;10.20;89.90;;;;;;5053516;28;20190;-72
2023/05/29 03:44:50;;;;;;;9.82;4.80;;;10.20;90.20;;;;;;5053029;28;20193;-72
2023/05/29 03:47:17;;;;;;;9.38;6.05;;;10.10;90.30;;;;;;5053598;28;20217;-72
2023/05/29 03:49:54;;;;;;;7.82;4.88;;;10.20;90.30;;;;;;5053569;28;20229;-72
2023/05/29 03:52:21;;;;;;;6.90;4.85;;;10.20;90.20;;;;;;5053474;28;20194;-72
2023/05/29 03:54:48;;;;;;;8.60;5.60;;;10.10;90.30;;;;;;5053126;28;20704;-73
2023/05/29 03:57:18;;;;;;;6.05;5.05;;;10.10;90.80;;;;;;5053266;28;20281;-72
2023/05/29 03:59:45;;;;;;;8.55;4.65;;;10.20;90.70;;;;;;5053250;28;20273;-73
2023/05/29 04:02:14;;;;;;;7.75;5.05;;;10.20;90.50;;;;;;5052757;28;20194;-73
2023/05/29 04:04:40;;;;;;;6.50;4.85;;;10.20;90.30;;;;;;5052809;28;20248;-73
2023/05/29 04:07:07;;;;;;;9.98;5.20;;;10.30;90.20;;;;;;5053265;28;20229;-73
2023/05/29 04:09:34;;;;;;;9.82;4.40;;;10.30;90.10;;;;;;5053095;28;20679;-72
2023/05/29 04:12:02;;;;;;;7.90;5.13;;;10.30;90.10;;;;;;5053080;28;20230;-73
2023/05/29 04:14:30;;;;;;;10.18;5.10;;;10.30;90.20;;;;;;5053092;28;20207;-72
2023/05/29 04:16:57;;;;;;;6.43;4.32;;;10.30;90.40;;;;;;5052305;28;20662;-72
2023/05/29 04:19:26;;;;;;;6.50;4.30;;;10.40;90.00;;;;;;5052694;28;20240;-72
2023/05/29 04:21:53;;;;;;;6.95;4.70;;;10.40;89.80;;;;;;5052857;28;20308;-72
2023/05/29 04:24:20;;;;;;;7.75;4.78;;;10.30;89.00;;;;;;5053124;28;20295;-72
2023/05/29 04:26:47;;;;;;;7.03;4.88;;;10.30;89.30;;;;;;5052568;28;20237;-72
2023/05/29 04:29:14;;;;;;;9.43;4.97;;;10.30;89.20;;;;;;5052959;28;20541;-72
2023/05/29 04:31:41;;;;;;;10.10;5.10;;;10.30;89.30;;;;;;5052723;28;20236;-72
2023/05/29 04:34:08;;;;;;;9.55;5.60;;;10.30;89.60;;;;;;5052606;28;20667;-72
2023/05/29 04:36:38;;;;;;;11.05;5.18;;;10.40;90.10;;;;;;5052860;28;20202;-72
2023/05/29 04:39:06;;;;;;;6.40;4.13;;;10.40;90.30;;;;;;5053081;28;20230;-72
2023/05/29 04:41:33;;;;;;;8.65;5.13;;;10.40;90.50;;;;;;5052685;28;20577;-72
2023/05/29 04:44:00;;;;;;;7.55;4.78;;;10.50;90.70;;;;;;5052641;28;20217;-72
2023/05/29 04:46:27;;;;;;;7.80;4.72;;;10.50;90.70;;;;;;5052831;28;20194;-72
2023/05/29 04:48:54;;;;;;;7.53;5.15;;;10.60;90.80;;;;;;5052557;28;20260;-72
2023/05/29 04:51:28;;;;;;;9.68;6.30;;;10.60;91.00;;;;;;5052507;28;20687;-72
2023/05/29 04:53:56;;;;;;;8.90;6.88;;;10.70;91.10;;;;;;5052396;28;20217;-72
2023/05/29 04:56:23;;;;;;;12.15;6.97;;;10.80;91.40;;;;;;5052614;28;20227;-72
2023/05/29 04:58:50;;;;;;;8.27;5.07;;;10.90;91.40;;;;;;5052558;28;20244;-72
2023/05/29 05:01:17;;;;;;;10.68;6.30;;;11.00;91.70;;;;;;5052345;28;20306;-72
2023/05/29 05:03:44;;;;;;;9.07;6.10;;;11.10;92.00;;;;;;5052671;28;20194;-71
2023/05/29 05:06:12;;;;;;;11.25;6.45;;;11.20;92.20;;;;;;5052490;28;20191;-72
2023/05/29 05:08:39;;;;;;;13.27;6.10;;;11.30;92.30;;;;;;5052256;28;20252;-72
2023/05/29 05:11:07;;;;;;;8.68;6.03;;;11.40;92.30;;;;;;5052482;28;20226;-72
2023/05/29 05:13:35;;;;;;;7.50;5.70;;;11.50;92.20;;;;;;5052530;28;20290;-72
2023/05/29 05:16:02;;;;;;;7.20;5.65;;;11.70;92.40;;;;;;5052304;28;20226;-72
2023/05/29 05:18:28;;;;;;;11.88;4.82;;;11.80;92.40;;;;;;5052122;28;20506;-72
2023/05/29 05:20:55;;;;;;;8.73;4.53;;;11.90;92.10;;;;;;5052430;28;20317;-72
2023/05/29 05:23:22;;;;;;;7.30;4.70;;;12.10;92.00;;;;;;5052505;28;20278;-72
2023/05/29 05:25:49;;;;;;;6.80;4.97;;;12.20;91.70;;;;;;5052523;28;20661;-72
2023/05/29 05:28:18;;;;;;;8.63;4.72;;;12.30;91.50;;;;;;5052657;28;20675;-72
2023/05/29 05:30:45;;;;;;;9.65;5.75;;;12.40;91.30;;;;;;5056265;28;20230;-72
2023/05/29 05:33:12;;;;;;;11.48;7.28;;;12.50;91.50;;;;;;5056266;28;20637;-73
2023/05/29 05:35:39;;;;;;;8.30;5.43;;;12.60;91.60;;;;;;5056382;28;20595;-73
2023/05/29 05:38:06;;;;;;;8.30;5.15;;;12.70;91.60;;;;;;5056349;28;20233;-73
2023/05/29 05:40:33;;;;;;;6.90;5.00;;;12.90;91.60;;;;;;5056185;28;20220;-72
2023/05/29 05:43:00;;;;;;;10.27;5.93;;;13.00;91.60;;;;;;5055359;28;20464;-72
2023/05/29 05:45:28;;;;;;;7.33;4.73;;;13.20;91.10;;;;;;5055791;28;20469;-73
2023/05/29 05:47:57;;;;;;;8.73;5.43;;;13.30;90.40;;;;;;5055860;28;20468;-72
2023/05/29 05:50:24;;;;;;;8.27;5.60;;;13.40;90.30;;;;;;5055667;28;20225;-72
2023/05/29 05:52:51;;;;;;;7.30;5.00;;;13.50;90.20;;;;;;5055961;28;20282;-72
2023/05/29 05:55:18;;;;;;;7.80;5.70;;;13.60;90.30;;;;;;5055811;28;20476;-73
2023/05/29 05:57:45;;;;;;;7.50;5.40;;;13.70;89.70;;;;;;5055698;28;20473;-72
2023/05/29 06:00:14;;;;;;;6.77;5.33;;;13.80;89.50;;;;;;5055939;28;20493;-73
2023/05/29 06:02:44;;;;;;;8.27;5.37;;;14.00;89.80;;;;;;5055700;28;20804;-73
2023/05/29 06:05:11;;;;;;;11.37;6.33;;;14.10;89.90;;;;;;5055359;28;20499;-73
2023/05/29 06:07:38;;;;;;;6.70;4.83;;;14.20;89.10;;;;;;5055573;28;20519;-73
2023/05/29 06:10:06;;;;;;;9.40;4.83;;;14.30;88.70;;;;;;5055583;28;20464;-72
2023/05/29 06:12:35;;;;;;;8.93;5.30;;;14.40;88.10;;;;;;5055562;28;20437;-72
2023/05/29 06:15:02;;;;;;;7.70;5.27;;;14.50;87.20;;;;;;5055458;28;20463;-73
2023/05/29 06:17:29;;;;;;;7.17;4.57;;;14.60;86.70;;;;;;5054674;28;20499;-72
2023/05/29 06:20:09;;;;;;;8.43;5.20;;;14.80;86.00;;;;;;5055375;28;20479;-73
2023/05/29 06:22:36;;;;;;;8.77;5.50;;;14.90;84.70;;;;;;5055373;28;20962;-73
2023/05/29 06:25:03;;;;;;;8.30;5.40;;;15.00;83.90;;;;;;5054999;28;20480;-73
2023/05/29 06:27:30;;;;;;;6.23;5.00;;;15.10;83.70;;;;;;5055048;28;20527;-73
2023/05/29 06:29:57;;;;;;;8.10;5.03;;;15.20;84.30;;;;;;5055265;28;20814;-73
2023/05/29 06:32:24;;;;;;;6.33;4.80;;;15.40;84.20;;;;;;5055343;28;20437;-72
2023/05/29 06:34:51;;;;;;;9.50;5.37;;;15.50;83.90;;;;;;5055069;28;20869;-73
2023/05/29 06:37:19;;;;;;;13.93;6.30;;;15.60;82.00;;;;;;5054689;28;20520;-73
2023/05/29 06:39:48;;;;;;;9.07;5.87;;;15.70;82.50;;;;;;5054677;28;20509;-73
2023/05/29 06:42:15;;;;;;;6.47;4.70;;;15.80;83.70;;;;;;5054339;28;20524;-73
2023/05/29 06:44:42;;;;;;;9.33;5.73;;;16.00;83.70;;;;;;5054805;28;20437;-72
2023/05/29 06:47:09;;;;;;;6.37;5.20;;;16.20;82.60;;;;;;5054889;28;20838;-73
2023/05/29 06:49:35;;;;;;;9.87;6.20;;;16.30;82.40;;;;;;5054763;28;20532;-73
2023/05/29 06:52:04;;;;;;;9.67;5.47;;;16.40;82.40;;;;;;5054667;28;20464;-73
2023/05/29 06:54:32;;;;;;;7.40;4.77;;;16.60;81.60;;;;;;5054795;28;20488;-73
2023/05/29 06:56:59;;;;;;;7.37;4.97;;;16.70;80.40;;;;;;5054725;28;20487;-73
2023/05/29 06:59:26;;;;;;;7.60;5.83;;;16.80;80.00;;;;;;5054356;28;20483;-73
2023/05/29 07:01:53;;;;;;;9.87;4.77;;;16.90;81.10;;;;;;5054317;28;20543;-72
2023/05/29 07:04:20;;;;;;;8.67;5.10;;;17.10;79.70;;;;;;5054440;28;20534;-72
2023/05/29 07:06:47;;;;;;;11.80;5.10;;;17.30;79.30;;;;;;5054297;28;20449;-72
2023/05/29 07:09:14;;;;;;;7.70;5.90;;;17.40;78.60;;;;;;5054478;28;20473;-72
2023/05/29 07:11:42;;;;;;;9.30;5.03;;;17.50;78.40;;;;;;5054451;28;20791;-73
2023/05/29 07:14:09;;;;;;;7.43;4.57;;;17.70;76.30;;;;;;5054248;28;20468;-73
2023/05/29 07:16:36;;;;;;;8.13;4.93;;;17.80;74.00;;;;;;5053921;28;20465;-73
2023/05/29 07:19:03;;;;;;;8.87;5.17;;;17.80;73.80;;;;;;5054082;28;20472;-73
2023/05/29 07:21:31;;;;;;;7.60;3.97;;;18.00;74.40;;;;;;5054028;28;20895;-73
2023/05/29 07:23:58;;;;;;;6.70;4.60;;;18.10;73.90;;;;;;5054128;28;20480;-73
2023/05/29 07:26:25;;;;;;;10.03;4.70;;;18.30;73.70;;;;;;5054157;28;20443;-73
2023/05/29 07:28:53;;;;;;;7.30;4.50;;;18.50;73.00;;;;;;5053986;28;20783;-73
2023/05/29 07:31:20;;;;;;;5.70;3.90;;;18.60;72.50;;;;;;5053849;28;20524;-73
2023/05/29 07:33:47;;;;;;;10.00;4.60;;;18.80;71.70;;;;;;5053552;28;20931;-71
2023/05/29 07:36:16;;;;;;;6.53;4.87;;;18.90;68.80;;;;;;5054034;28;20464;-72
2023/05/29 07:38:43;;;;;;;6.30;4.50;;;18.90;69.30;;;;;;5053785;28;20432;-73
2023/05/29 07:41:10;;;;;;;7.73;5.60;;;19.00;68.50;;;;;;5053758;28;20444;-73
2023/05/29 07:43:37;;;;;;;10.00;5.50;;;19.20;68.90;;;;;;5053731;28;20437;-73
2023/05/29 07:46:05;;;;;;;9.07;4.60;;;19.30;70.40;;;;;;5053495;28;20475;-73
2023/05/29 07:48:32;;;;;;;9.03;5.57;;;19.50;69.90;;;;;;5053566;28;20992;-73
2023/05/29 07:51:00;;;;;;;7.30;4.47;;;19.60;67.80;;;;;;5053475;28;20931;-74
2023/05/29 07:53:26;;;;;;;8.90;5.53;;;19.80;68.10;;;;;;5053249;28;20468;-73
2023/05/29 07:55:54;;;;;;;8.37;5.00;;;20.00;68.60;;;;;;5053721;28;20502;-74
2023/05/29 07:58:21;;;;;;;5.40;4.10;;;20.20;68.20;;;;;;5053246;28;20494;-73
2023/05/29 08:00:48;;;;;;;5.80;4.43;;;20.30;66.60;;;;;;5053393;28;20494;-73
2023/05/29 08:03:17;;;;;;;6.60;4.70;;;20.50;67.90;;;;;;5053276;28;20995;-72
2023/05/29 08:05:44;;;;;;;10.33;5.30;;;20.60;66.40;;;;;;5053457;28;20433;-73
2023/05/29 08:08:12;;;;;;;7.63;4.47;;;20.80;64.80;;;;;;5052965;28;20476;-73
2023/05/29 08:10:39;;;;;;;12.10;6.63;;;21.00;65.40;;;;;;5053243;28;20448;-73
2023/05/29 08:13:06;;;;;;;8.50;4.80;;;21.10;63.00;;;;;;5052981;28;20488;-73
2023/05/29 08:15:33;;;;;;;9.13;4.90;;;21.20;63.60;;;;;;5053119;28;20476;-73
2023/05/29 08:18:00;;;;;;;7.50;4.93;;;21.40;63.50;;;;;;5052902;28;20508;-73
2023/05/29 08:20:28;;;;;;;6.27;4.50;;;21.60;62.20;;;;;;5041270;28;20450;-75
2023/05/29 08:22:55;;;;;;;13.13;4.80;;;21.80;63.10;;;;;;5069892;28;20483;-74
2023/05/29 08:25:22;;;;;;;7.47;5.10;;;22.00;61.50;;;;;;5066746;28;20496;-73
2023/05/29 08:27:49;;;;;;;8.50;5.43;;;22.20;61.70;;;;;;5051522;28;20441;-73
2023/05/29 08:30:16;;;;;;;10.30;4.77;;;22.30;59.90;;;;;;5051168;28;20439;-74
2023/05/29 08:32:43;;;;;;;8.87;4.73;;;22.40;58.80;;;;;;5051624;28;21504;-75
2023/05/29 08:35:15;;;;;;;5.90;4.47;;;22.50;59.00;;;;;;5050921;28;20441;-75
2023/05/29 08:37:43;;;;;;;6.10;4.10;;;22.70;59.80;;;;;;5051322;28;20504;-74
2023/05/29 08:40:12;;;;;;;7.47;4.57;;;22.80;58.60;;;;;;5051229;28;20441;-74
2023/05/29 08:42:47;;;;;;;6.87;5.03;;;23.00;58.80;;;;;;5051137;28;20480;-75
2023/05/29 08:45:15;;;;;;;9.37;5.70;;;23.10;59.10;;;;;;5051432;28;20828;-75
2023/05/29 08:47:42;;;;;;;6.63;4.30;;;23.30;56.90;;;;;;5051210;28;20441;-74
2023/05/29 08:50:10;;;;;;;6.40;4.43;;;23.40;57.90;;;;;;5051113;28;20531;-75
2023/05/29 08:52:40;;;;;;;7.23;4.37;;;23.50;57.90;;;;;;5051391;28;20499;-75
2023/05/29 08:55:09;;;;;;;8.00;5.10;;;23.70;58.00;;;;;;5051359;28;20441;-74
2023/05/29 08:57:38;;;;;;;7.30;4.03;;;23.80;56.50;;;;;;5051325;28;20487;-75
2023/05/29 09:00:11;;;;;;;5.90;3.73;;;24.00;55.00;;;;;;5057017;28;20444;-75
2023/05/29 09:02:39;;;;;;;7.80;4.83;;;24.10;53.20;;;;;;5050755;28;20523;-73
2023/05/29 09:05:07;;;;;;;6.70;4.20;;;24.20;54.70;;;;;;5053817;28;20940;-75
2023/05/29 09:07:38;;;;;;;10.63;4.37;;;24.30;55.90;;;;;;5055812;28;20986;-75
2023/05/29 09:10:06;;;;;;;6.20;3.93;;;24.60;54.60;;;;;;5056107;28;20883;-75
2023/05/29 09:12:35;;;;;;;6.90;4.23;;;24.70;53.80;;;;;;5058296;28;20440;-73
2023/05/29 09:15:09;;;;;;;7.07;4.07;;;24.90;51.90;;;;;;5075042;28;20945;-75
2023/05/29 09:17:36;;;;;;;6.90;4.20;;;25.00;51.30;;;;;;5072253;28;20542;-73
2023/05/29 09:20:04;;;;;;;6.00;4.07;;;25.10;51.00;;;;;;5074478;28;20424;-75
2023/05/29 09:22:31;;;;;;;6.03;4.00;;;25.20;49.00;;;;;;5071512;28;20479;-75
2023/05/29 09:24:59;;;;;;;9.53;4.83;;;25.30;48.50;;;;;;5054381;28;20441;-74
2023/05/29 09:27:26;;;;;;;5.20;3.63;;;25.40;46.70;;;;;;5071527;28;20447;-75
2023/05/29 09:29:55;;;;;;;6.03;4.13;;;25.40;45.50;;;;;;5053609;28;20448;-74
2023/05/29 09:32:22;;;;;;;7.07;4.40;;;25.50;46.40;;;;;;5072809;28;20440;-74
2023/05/29 09:34:54;;;;;;;8.57;4.20;;;25.50;44.10;;;;;;5054229;28;20955;-75
2023/05/29 09:37:23;;;;;;;6.13;4.10;;;25.50;44.40;;;;;;5061860;28;20436;-74
2023/05/29 09:39:51;;;;;;;5.97;4.13;;;25.60;42.60;;;;;;5054334;28;20476;-74
2023/05/29 09:42:20;;;;;;;9.80;5.10;;;25.60;43.30;;;;;;5054190;28;20530;-74
2023/05/29 09:44:52;;;;;;;7.23;4.73;;;25.60;42.60;;;;;;5074135;28;20490;-74
2023/05/29 09:47:21;;;;;;;5.97;4.30;;;25.70;43.90;;;;;;5074281;28;20528;-74
2023/05/29 09:49:48;;;;;;;7.13;4.63;;;25.80;43.70;;;;;;5073421;28;20432;-74
2023/05/29 09:52:15;;;;;;;5.33;3.60;;;25.90;42.40;;;;;;5073294;28;20932;-74
2023/05/29 09:54:45;;;;;;;7.80;4.40;;;26.00;43.10;;;;;;5075080;28;20432;-74
2023/05/29 09:57:15;;;;;;;6.77;4.93;;;26.10;43.10;;;;;;5075309;28;20919;-74
2023/05/29 09:59:44;;;;;;;6.73;4.10;;;26.20;43.20;;;;;;5074636;28;20839;-75
2023/05/29 10:02:13;;;;;;;8.63;5.40;;;26.40;43.00;;;;;;5075057;28;20479;-74
2023/05/29 10:04:43;;;;;;;7.93;4.43;;;26.40;40.10;;;;;;5075373;28;20436;-74
2023/05/29 10:07:21;;;;;;;8.20;3.87;;;26.40;40.10;;;;;;5075653;28;20443;-75
2023/05/29 10:09:53;;;;;;;5.80;3.83;;;26.50;41.30;;;;;;5075776;28;20837;-74
2023/05/29 10:12:23;;;;;;;8.70;5.00;;;26.60;41.10;;;;;;5075642;28;20478;-75
2023/05/29 10:14:51;;;;;;;8.80;4.60;;;26.70;39.80;;;;;;5074583;28;20957;-74
2023/05/29 10:17:23;;;;;;;6.20;4.40;;;26.80;41.10;;;;;;5074504;28;20776;-74
2023/05/29 10:19:53;;;;;;;7.77;4.50;;;26.80;40.10;;;;;;5075412;28;20525;-75
2023/05/29 10:22:24;;;;;;;6.53;4.60;;;26.90;40.20;;;;;;5074755;28;20475;-74
2023/05/29 10:24:52;;;;;;;8.17;5.00;;;26.90;39.00;;;;;;5075496;28;20447;-75
2023/05/29 10:27:19;;;;;;;6.70;4.73;;;26.90;39.30;;;;;;5075350;28;20475;-75
2023/05/29 10:29:53;;;;;;;6.47;4.20;;;27.00;37.60;;;;;;5075128;28;20486;-74
2023/05/29 10:32:24;;;;;;;6.87;4.97;;;26.90;37.80;;;;;;5075641;28;20439;-75
2023/05/29 10:35:01;;;;;;;6.80;4.33;;;26.90;38.50;;;;;;5075136;28;20440;-74
2023/05/29 10:37:34;;;;;;;7.67;4.53;;;27.00;39.00;;;;;;5074732;28;20435;-74
2023/05/29 10:40:11;;;;;;;6.80;4.67;;;27.10;40.50;;;;;;5075043;28;20466;-74
2023/05/29 10:42:46;;;;;;;5.80;3.63;;;27.20;38.10;;;;;;5075047;28;20495;-74
2023/05/29 10:45:45;;;;;;;6.67;4.93;;;27.30;38.90;;;;;;5074840;28;20850;-75
2023/05/29 10:48:41;;;;;;;6.90;4.93;;;27.30;38.00;;;;;;5075142;28;20489;-74
2023/05/29 10:51:24;;;;;;;7.20;5.00;;;27.40;36.70;;;;;;5074928;28;20432;-75
2023/05/29 10:53:51;;;;;;;5.30;4.07;;;27.40;38.00;;;;;;5073513;28;20949;-75
2023/05/29 10:56:24;;;;;;;7.20;4.10;;;27.60;38.30;;;;;;5074733;28;20440;-74
2023/05/29 10:58:55;;;;;;;6.37;3.77;;;27.60;36.80;;;;;;5074730;28;20518;-75
2023/05/29 11:01:24;;;;;;;9.43;5.20;;;27.70;36.60;;;;;;5074427;28;20491;-74
2023/05/29 11:03:52;;;;;;;4.67;3.50;;;27.60;35.90;;;;;;5074457;28;20897;-75
2023/05/29 11:06:23;;;;;;;6.27;3.97;;;27.60;36.90;;;;;;5074397;28;20869;-74
2023/05/29 11:08:55;;;;;;;5.23;4.10;;;27.60;35.00;;;;;;5073951;28;20420;-74
2023/05/29 11:11:31;;;;;;;6.57;4.40;;;27.60;35.30;;;;;;5074712;28;20460;-75
2023/05/29 11:14:02;;;;;;;11.33;3.93;;;27.50;35.00;;;;;;5074334;28;20478;-76
2023/05/29 11:16:39;;;;;;;6.37;4.00;;;27.60;35.30;;;;;;5074238;28;20475;-75
2023/05/29 11:19:09;;;;;;;7.10;4.60;;;27.70;35.00;;;;;;5073952;28;20439;-76
2023/05/29 11:21:51;;;;;;;7.70;3.97;;;27.80;35.00;;;;;;5074288;28;20455;-75
2023/05/29 11:24:23;;;;;;;5.20;3.63;;;27.90;34.00;;;;;;5074252;28;20484;-75
2023/05/29 11:26:52;;;;;;;6.63;4.30;;;27.90;33.80;;;;;;5073620;28;20945;-75
2023/05/29 11:29:23;;;;;;;7.63;4.20;;;27.90;33.90;;;;;;5073802;28;20527;-75
2023/05/29 11:31:56;;;;;;;8.67;4.40;;;27.90;34.90;;;;;;5073888;28;20841;-75
2023/05/29 11:34:24;;;;;;;9.93;4.67;;;27.90;34.50;;;;;;5073871;28;20448;-75
2023/05/29 11:36:54;;;;;;;5.07;4.30;;;28.00;35.50;;;;;;5073468;28;20444;-75
2023/05/29 11:39:21;;;;;;;6.70;4.53;;;28.00;37.00;;;;;;5074062;28;20490;-75
2023/05/29 11:41:52;;;;;;;7.80;4.27;;;28.10;35.10;;;;;;5073742;28;20440;-75
2023/05/29 11:44:18;;;;;;;6.77;4.50;;;28.10;34.40;;;;;;5073522;28;20479;-75
2023/05/29 11:46:45;;;;;;;6.80;4.53;;;28.20;34.20;;;;;;5073736;28;20467;-75
2023/05/29 11:49:12;;;;;;;8.23;4.47;;;28.20;33.20;;;;;;5073263;28;20951;-75
2023/05/29 11:51:43;;;;;;;5.77;3.70;;;28.20;33.30;;;;;;5073303;28;20444;-75
2023/05/29 11:54:14;;;;;;;7.13;4.30;;;28.20;32.40;;;;;;5073898;28;20440;-75
2023/05/29 11:56:41;;;;;;;6.53;3.70;;;28.20;32.70;;;;;;5073518;28;20480;-75
2023/05/29 11:59:13;;;;;;;7.07;4.43;;;28.10;31.60;;;;;;5073434;28;20515;-75
2023/05/29 12:01:40;;;;;;;7.23;4.53;;;28.00;32.60;;;;;;5073407;28;20436;-75
2023/05/29 12:04:16;;;;;;;5.87;3.80;;;28.00;33.20;;;;;;5073397;28;20925;-75
2023/05/29 12:06:44;;;;;;;7.10;4.90;;;27.90;33.00;;;;;;5073490;28;20443;-75
2023/05/29 12:09:26;;;;;;;6.23;4.73;;;27.90;33.30;;;;;;5073423;28;20531;-75
2023/05/29 12:11:52;;;;;;;7.20;4.50;;;27.90;31.20;;;;;;5073577;28;20435;-75
2023/05/29 12:14:20;;;;;;;6.10;4.30;;;27.90;32.40;;;;;;5073194;28;20436;-75
2023/05/29 12:16:47;;;;;;;6.70;4.27;;;27.90;32.10;;;;;;5072723;28;20974;-74
2023/05/29 12:19:14;;;;;;;5.17;3.70;;;27.80;31.70;;;;;;5073408;28;20813;-75
2023/05/29 12:21:43;;;;;;;6.80;4.73;;;27.80;32.30;;;;;;5073380;28;20513;-75
2023/05/29 12:24:10;;;;;;;6.60;4.77;;;27.80;33.20;;;;;;5073158;28;20838;-75
2023/05/29 12:26:38;;;;;;;5.90;4.43;;;27.70;32.50;;;;;;5072976;28;20476;-75
2023/05/29 12:29:06;;;;;;;7.13;4.20;;;27.70;31.10;;;;;;5073341;28;20449;-75
2023/05/29 12:31:33;;;;;;;7.80;5.27;;;27.70;32.90;;;;;;5073318;28;20442;-75
2023/05/29 12:34:02;;;;;;;6.77;4.50;;;27.60;32.10;;;;;;5073111;28;20502;-75
2023/05/29 12:36:30;;;;;;;6.57;4.17;;;27.60;33.90;;;;;;5072764;28;20796;-75
2023/05/29 12:38:58;;;;;;;13.27;4.60;;;27.60;34.20;;;;;;5072374;28;20489;-74
2023/05/29 12:41:26;;;;;;;5.63;3.70;;;27.60;34.40;;;;;;5073092;28;20440;-75
2023/05/29 12:43:56;;;;;;;8.23;4.17;;;27.60;34.10;;;;;;5072434;28;20511;-75
2023/05/29 12:46:24;;;;;;;8.13;4.60;;;27.50;32.90;;;;;;5072888;28;20548;-74
2023/05/29 12:48:53;;;;;;;6.67;3.93;;;27.30;32.10;;;;;;5072952;28;20431;-75
2023/05/29 12:51:24;;;;;;;5.60;4.10;;;27.20;33.10;;;;;;5073098;28;20542;-75
2023/05/29 12:53:54;;;;;;;6.50;4.20;;;27.20;32.30;;;;;;5072929;28;20435;-76